Lebanon Junction, KY (40150)

1:02 AM EST on December 28, 2014 (GMT -0500)
Hwy 245 & I65 - Clermont, KY | Change Station
CLOSE
Current Station
Personal Weather Station
Location: Shepherdsville, KY
Elevation: 558 ft
Nearby Weather Stations

Elev 558 ft 37.91 °N, 85.68 °W | Updated 25 seconds ago

Rain
Rain
47.9 °F
Feels Like 48 °F
N
0.0
Wind Variable Wind from SSE
Gusts 1.0 mph

Today
High -- | Low -- °F
--% Chance of Precip.
Yesterday
High -- | Low -- °F
Precip. -- in
7:57 AM 5:31 PM
Waxing Crescent, 44% visible
Pressure 30.06 in
Visibility 4.0 miles
Clouds Scattered Clouds 500 ft
Overcast 5500 ft
Windchill 48 °F
Dew Point 48 °F
Humidity 99%
Rainfall 0.02 in
Snow Depth Not available.
UV 0.0 out of 12
Pollen .10 out of 12
Air Quality Not available.
Flu Activity Not available.
METAR KFTK 280558Z AUTO 23003KT 4SM R18/4500FT RA BR SCT005 OVC055 08/08 A3004 RMK AO2 SLP177 P0006 60011 55014

More Conditions Fewer Conditions

Pressure 30.06 in
Visibility 4.0 miles
Clouds Scattered Clouds 500 ft
Overcast 5500 ft
Windchill 48 °F
Dew Point 48 °F
Humidity 99%
Rainfall 0.02 in
Snow Depth Not available.
UV 0.0 out of 12
Pollen .10 out of 12
Air Quality Not available.
Flu Activity Not available.
METAR KFTK 280558Z AUTO 23003KT 4SM R18/4500FT RA BR SCT005 OVC055 08/08 A3004 RMK AO2 SLP177 P0006 60011 55014

More Conditions Fewer Conditions

10-Day Weather Forecast

Almanac

Astronomy

Dec. 28, 2014 Rise Set
Actual Time
Civil Twilight
Nautical Twilight
Astronomical Twilight
Moon
Length of Visible Light
Length of Day
Tomorrow will be .
, % of the Moon is Illuminated

Today's Extremes

State Highs State Lows

Community

WunderPhotos

Upload Photos

1,781,206 photos uploaded!

WunderBlogs® & News

Nearby

Air Quality

  Air Quality AQ Index Pollutant
Not available.

Snow Depth

Station Depth Elevation

Earthquake Activity

City Distance Mag. Time & Date
Minimum magnitude displayed is 2.5.

Coastal Water Temperatures

Place Temperature

Nearby Weather Stations